Terminal Aerodrome Forecast
Issued by NWS Northern Indiana

Home | Current Version | Previous Version | Graphics & Text | Print | Product List | Glossary On
Versions: 1 2 3 4 5 6 7 8 9 10 11 12 13 14 15 16 17 18 19
877
FTUS43 KIWX 202150 AAA
TAFFWA
TAF AMD
KFWA 202150Z 2022/2118 10013KT P6SM BKN010 BKN100
     FM210200 14011KT 4SM SHRA VCTS OVC050CB
     FM210500 17010KT 6SM -SHRA OVC060
     FM211400 22013KT P6SM OVC015
     FM211700 24010KT P6SM BKN035=

USA.gov is the U.S. government's official web portal to all federal, state and local government web resources and services.